sensor_id;sensor_type;location;lat;lon;timestamp;temperature;humidity
46652;DHT22;32377;52.182;5.398;2024-01-10T00:01:31;-3.60;99.90
46652;DHT22;32377;52.182;5.398;2024-01-10T00:03:57;-3.70;99.90
46652;DHT22;32377;52.182;5.398;2024-01-10T00:06:23;-3.70;99.90
46652;DHT22;32377;52.182;5.398;2024-01-10T00:08:49;-3.80;99.90
46652;DHT22;32377;52.182;5.398;2024-01-10T00:11:15;-3.80;99.90
46652;DHT22;32377;52.182;5.398;2024-01-10T00:13:41;-3.90;99.90
46652;DHT22;32377;52.182;5.398;2024-01-10T00:16:07;-3.80;99.90
46652;DHT22;32377;52.182;5.398;2024-01-10T00:18:33;-3.80;99.90
46652;DHT22;32377;52.182;5.398;2024-01-10T00:20:59;-3.80;99.90
46652;DHT22;32377;52.182;5.398;2024-01-10T00:23:24;-3.90;99.90
46652;DHT22;32377;52.182;5.398;2024-01-10T00:25:50;-3.80;99.90
46652;DHT22;32377;52.182;5.398;2024-01-10T00:28:15;-3.80;99.90
46652;DHT22;32377;52.182;5.398;2024-01-10T00:30:45;-3.80;99.90
46652;DHT22;32377;52.182;5.398;2024-01-10T00:33:13;-3.90;99.90
46652;DHT22;32377;52.182;5.398;2024-01-10T00:35:38;-3.90;99.90
46652;DHT22;32377;52.182;5.398;2024-01-10T00:38:04;-4.00;99.90
46652;DHT22;32377;52.182;5.398;2024-01-10T00:40:29;-3.90;99.90
46652;DHT22;32377;52.182;5.398;2024-01-10T00:42:55;-3.90;99.90
46652;DHT22;32377;52.182;5.398;2024-01-10T00:45:20;-3.90;99.90
46652;DHT22;32377;52.182;5.398;2024-01-10T00:47:48;-4.00;99.90
46652;DHT22;32377;52.182;5.398;2024-01-10T00:50:14;-4.00;99.90
46652;DHT22;32377;52.182;5.398;2024-01-10T00:52:40;-4.00;99.90
46652;DHT22;32377;52.182;5.398;2024-01-10T00:55:06;-4.00;99.90
46652;DHT22;32377;52.182;5.398;2024-01-10T00:57:31;-4.00;99.90
46652;DHT22;32377;52.182;5.398;2024-01-10T00:59:57;-4.00;99.90
46652;DHT22;32377;52.182;5.398;2024-01-10T01:02:22;-4.10;99.90
46652;DHT22;32377;52.182;5.398;2024-01-10T01:04:48;-4.20;99.90
46652;DHT22;32377;52.182;5.398;2024-01-10T01:07:13;-4.20;99.90
46652;DHT22;32377;52.182;5.398;2024-01-10T01:09:39;-4.30;99.90
46652;DHT22;32377;52.182;5.398;2024-01-10T01:12:05;-4.30;99.90
46652;DHT22;32377;52.182;5.398;2024-01-10T01:14:31;-4.30;99.90
46652;DHT22;32377;52.182;5.398;2024-01-10T01:16:56;-4.30;99.90
46652;DHT22;32377;52.182;5.398;2024-01-10T01:19:22;-4.30;99.90
46652;DHT22;32377;52.182;5.398;2024-01-10T01:21:47;-4.20;99.90
46652;DHT22;32377;52.182;5.398;2024-01-10T01:24:13;-4.30;99.90
46652;DHT22;32377;52.182;5.398;2024-01-10T01:26:38;-4.30;99.90
46652;DHT22;32377;52.182;5.398;2024-01-10T01:29:04;-4.30;99.90
46652;DHT22;32377;52.182;5.398;2024-01-10T01:31:30;-4.30;99.90
46652;DHT22;32377;52.182;5.398;2024-01-10T01:33:55;-4.30;99.90
46652;DHT22;32377;52.182;5.398;2024-01-10T01:36:21;-4.30;99.90
46652;DHT22;32377;52.182;5.398;2024-01-10T01:38:46;-4.30;99.90
46652;DHT22;32377;52.182;5.398;2024-01-10T01:41:12;-4.30;99.90
46652;DHT22;32377;52.182;5.398;2024-01-10T01:43:40;-4.30;99.90
46652;DHT22;32377;52.182;5.398;2024-01-10T01:46:05;-4.30;99.90
46652;DHT22;32377;52.182;5.398;2024-01-10T01:48:31;-4.30;99.90
46652;DHT22;32377;52.182;5.398;2024-01-10T01:51:00;-4.30;99.90
46652;DHT22;32377;52.182;5.398;2024-01-10T01:53:27;-4.30;99.90
46652;DHT22;32377;52.182;5.398;2024-01-10T01:55:55;-4.30;99.90
46652;DHT22;32377;52.182;5.398;2024-01-10T01:58:22;-4.30;99.90
46652;DHT22;32377;52.182;5.398;2024-01-10T02:00:48;-4.40;99.90
46652;DHT22;32377;52.182;5.398;2024-01-10T02:03:14;-4.40;99.90
46652;DHT22;32377;52.182;5.398;2024-01-10T02:05:40;-4.40;99.90
46652;DHT22;32377;52.182;5.398;2024-01-10T02:08:05;-4.30;99.90
46652;DHT22;32377;52.182;5.398;2024-01-10T02:10:31;-4.30;99.90
46652;DHT22;32377;52.182;5.398;2024-01-10T02:12:57;-4.30;99.90
46652;DHT22;32377;52.182;5.398;2024-01-10T02:15:23;-4.40;99.90
46652;DHT22;32377;52.182;5.398;2024-01-10T02:17:49;-4.40;99.90
46652;DHT22;32377;52.182;5.398;2024-01-10T02:20:15;-4.40;99.90
46652;DHT22;32377;52.182;5.398;2024-01-10T02:22:46;-4.40;99.90
46652;DHT22;32377;52.182;5.398;2024-01-10T02:25:13;-4.40;99.90
46652;DHT22;32377;52.182;5.398;2024-01-10T02:27:40;-4.40;99.90
46652;DHT22;32377;52.182;5.398;2024-01-10T02:30:07;-4.40;99.90
46652;DHT22;32377;52.182;5.398;2024-01-10T02:32:33;-4.40;99.90
46652;DHT22;32377;52.182;5.398;2024-01-10T02:35:00;-4.40;99.90
46652;DHT22;32377;52.182;5.398;2024-01-10T02:37:25;-4.40;99.90
46652;DHT22;32377;52.182;5.398;2024-01-10T02:39:51;-4.50;99.90
46652;DHT22;32377;52.182;5.398;2024-01-10T02:42:17;-4.50;99.90
46652;DHT22;32377;52.182;5.398;2024-01-10T02:44:43;-4.50;99.90
46652;DHT22;32377;52.182;5.398;2024-01-10T02:47:11;-4.50;99.90
46652;DHT22;32377;52.182;5.398;2024-01-10T02:49:37;-4.50;99.90
46652;DHT22;32377;52.182;5.398;2024-01-10T02:52:03;-4.50;99.90
46652;DHT22;32377;52.182;5.398;2024-01-10T02:54:29;-4.50;99.90
46652;DHT22;32377;52.182;5.398;2024-01-10T02:56:54;-4.50;99.90
46652;DHT22;32377;52.182;5.398;2024-01-10T02:59:20;-4.50;99.90
46652;DHT22;32377;52.182;5.398;2024-01-10T03:01:45;-4.50;99.90
46652;DHT22;32377;52.182;5.398;2024-01-10T03:04:11;-4.50;99.90
46652;DHT22;32377;52.182;5.398;2024-01-10T03:06:37;-4.50;99.90
46652;DHT22;32377;52.182;5.398;2024-01-10T03:09:02;-4.50;99.90
46652;DHT22;32377;52.182;5.398;2024-01-10T03:11:28;-4.50;99.90
46652;DHT22;32377;52.182;5.398;2024-01-10T03:14:02;-4.60;99.90
46652;DHT22;32377;52.182;5.398;2024-01-10T03:16:29;-4.60;99.90
46652;DHT22;32377;52.182;5.398;2024-01-10T03:18:55;-4.60;99.90
46652;DHT22;32377;52.182;5.398;2024-01-10T03:21:20;-4.60;99.90
46652;DHT22;32377;52.182;5.398;2024-01-10T03:23:50;-4.60;99.90
46652;DHT22;32377;52.182;5.398;2024-01-10T03:26:16;-4.60;99.90
46652;DHT22;32377;52.182;5.398;2024-01-10T03:28:41;-4.60;99.90
46652;DHT22;32377;52.182;5.398;2024-01-10T03:31:07;-4.70;99.90
46652;DHT22;32377;52.182;5.398;2024-01-10T03:33:33;-4.70;99.90
46652;DHT22;32377;52.182;5.398;2024-01-10T03:35:58;-4.70;99.90
46652;DHT22;32377;52.182;5.398;2024-01-10T03:38:24;-4.70;99.90
46652;DHT22;32377;52.182;5.398;2024-01-10T03:40:49;-4.60;99.90
46652;DHT22;32377;52.182;5.398;2024-01-10T03:43:15;-4.60;99.90
46652;DHT22;32377;52.182;5.398;2024-01-10T03:45:42;-4.70;99.90
46652;DHT22;32377;52.182;5.398;2024-01-10T03:48:07;-4.70;99.90
46652;DHT22;32377;52.182;5.398;2024-01-10T03:50:33;-4.70;99.90
46652;DHT22;32377;52.182;5.398;2024-01-10T03:52:59;-4.80;99.90
46652;DHT22;32377;52.182;5.398;2024-01-10T03:55:24;-4.80;99.90
46652;DHT22;32377;52.182;5.398;2024-01-10T03:57:50;-4.80;99.90
46652;DHT22;32377;52.182;5.398;2024-01-10T04:00:16;-4.70;99.90
46652;DHT22;32377;52.182;5.398;2024-01-10T04:02:42;-4.70;99.90
46652;DHT22;32377;52.182;5.398;2024-01-10T04:05:08;-4.70;99.90
46652;DHT22;32377;52.182;5.398;2024-01-10T04:07:41;-4.70;99.90
46652;DHT22;32377;52.182;5.398;2024-01-10T04:10:09;-4.60;99.90
46652;DHT22;32377;52.182;5.398;2024-01-10T04:12:39;-4.60;99.90
46652;DHT22;32377;52.182;5.398;2024-01-10T04:15:05;-4.70;99.90
46652;DHT22;32377;52.182;5.398;2024-01-10T04:17:31;-4.60;99.90
46652;DHT22;32377;52.182;5.398;2024-01-10T04:19:57;-4.70;99.90
46652;DHT22;32377;52.182;5.398;2024-01-10T04:22:24;-4.60;99.90
46652;DHT22;32377;52.182;5.398;2024-01-10T04:24:50;-4.60;99.90
46652;DHT22;32377;52.182;5.398;2024-01-10T04:27:15;-4.60;99.90
46652;DHT22;32377;52.182;5.398;2024-01-10T04:29:41;-4.60;99.90
46652;DHT22;32377;52.182;5.398;2024-01-10T04:32:07;-4.70;99.90
46652;DHT22;32377;52.182;5.398;2024-01-10T04:34:32;-4.70;99.90
46652;DHT22;32377;52.182;5.398;2024-01-10T04:36:58;-4.60;99.90
46652;DHT22;32377;52.182;5.398;2024-01-10T04:39:23;-4.60;99.90
46652;DHT22;32377;52.182;5.398;2024-01-10T04:41:49;-4.60;99.90
46652;DHT22;32377;52.182;5.398;2024-01-10T04:44:15;-4.50;99.90
46652;DHT22;32377;52.182;5.398;2024-01-10T04:46:41;-4.60;99.90
46652;DHT22;32377;52.182;5.398;2024-01-10T04:49:07;-4.60;99.90
46652;DHT22;32377;52.182;5.398;2024-01-10T04:51:33;-4.60;99.90
46652;DHT22;32377;52.182;5.398;2024-01-10T04:53:58;-4.70;99.90
46652;DHT22;32377;52.182;5.398;2024-01-10T04:56:25;-4.70;99.90
46652;DHT22;32377;52.182;5.398;2024-01-10T04:58:51;-4.70;99.90
46652;DHT22;32377;52.182;5.398;2024-01-10T05:01:17;-4.60;99.90
46652;DHT22;32377;52.182;5.398;2024-01-10T05:03:43;-4.60;99.90
46652;DHT22;32377;52.182;5.398;2024-01-10T05:06:08;-4.70;99.90
46652;DHT22;32377;52.182;5.398;2024-01-10T05:08:34;-4.70;99.90
46652;DHT22;32377;52.182;5.398;2024-01-10T05:11:00;-4.70;99.90
46652;DHT22;32377;52.182;5.398;2024-01-10T05:13:25;-4.80;99.90
46652;DHT22;32377;52.182;5.398;2024-01-10T05:15:51;-4.70;99.90
46652;DHT22;32377;52.182;5.398;2024-01-10T05:18:18;-4.80;99.90
46652;DHT22;32377;52.182;5.398;2024-01-10T05:20:44;-4.80;99.90
46652;DHT22;32377;52.182;5.398;2024-01-10T05:23:10;-4.80;99.90
46652;DHT22;32377;52.182;5.398;2024-01-10T05:25:36;-4.80;99.90
46652;DHT22;32377;52.182;5.398;2024-01-10T05:28:01;-4.80;99.90
46652;DHT22;32377;52.182;5.398;2024-01-10T05:30:27;-4.80;99.90
46652;DHT22;32377;52.182;5.398;2024-01-10T05:32:53;-4.80;99.90
46652;DHT22;32377;52.182;5.398;2024-01-10T05:35:18;-4.80;99.90
46652;DHT22;32377;52.182;5.398;2024-01-10T05:37:44;-4.80;99.90
46652;DHT22;32377;52.182;5.398;2024-01-10T05:40:10;-4.80;99.90
46652;DHT22;32377;52.182;5.398;2024-01-10T05:42:35;-4.80;99.90
46652;DHT22;32377;52.182;5.398;2024-01-10T05:45:04;-4.80;99.90
46652;DHT22;32377;52.182;5.398;2024-01-10T05:47:29;-4.80;99.90
46652;DHT22;32377;52.182;5.398;2024-01-10T05:49:55;-4.80;99.90
46652;DHT22;32377;52.182;5.398;2024-01-10T05:52:21;-4.90;99.90
46652;DHT22;32377;52.182;5.398;2024-01-10T05:54:47;-4.90;99.90
46652;DHT22;32377;52.182;5.398;2024-01-10T05:57:14;-4.80;99.90
46652;DHT22;32377;52.182;5.398;2024-01-10T05:59:40;-4.80;99.90
46652;DHT22;32377;52.182;5.398;2024-01-10T06:02:05;-4.80;99.90
46652;DHT22;32377;52.182;5.398;2024-01-10T06:04:31;-4.80;99.90
46652;DHT22;32377;52.182;5.398;2024-01-10T06:06:58;-4.80;99.90
46652;DHT22;32377;52.182;5.398;2024-01-10T06:09:24;-4.80;99.90
46652;DHT22;32377;52.182;5.398;2024-01-10T06:11:49;-4.80;99.90
46652;DHT22;32377;52.182;5.398;2024-01-10T06:14:15;-4.80;99.90
46652;DHT22;32377;52.182;5.398;2024-01-10T06:16:41;-4.80;99.90
46652;DHT22;32377;52.182;5.398;2024-01-10T06:19:06;-4.80;99.90
46652;DHT22;32377;52.182;5.398;2024-01-10T06:21:32;-4.80;99.90
46652;DHT22;32377;52.182;5.398;2024-01-10T06:23:57;-4.90;99.90
46652;DHT22;32377;52.182;5.398;2024-01-10T06:26:23;-4.90;99.90
46652;DHT22;32377;52.182;5.398;2024-01-10T06:28:49;-4.90;99.90
46652;DHT22;32377;52.182;5.398;2024-01-10T06:31:14;-4.80;99.90
46652;DHT22;32377;52.182;5.398;2024-01-10T06:33:40;-4.90;99.90
46652;DHT22;32377;52.182;5.398;2024-01-10T22:58:14;-3.30;99.90
46652;DHT22;32377;52.182;5.398;2024-01-10T23:00:40;-3.50;99.90
46652;DHT22;32377;52.182;5.398;2024-01-10T23:03:06;-3.60;99.90
46652;DHT22;32377;52.182;5.398;2024-01-10T23:05:31;-3.70;99.90
46652;DHT22;32377;52.182;5.398;2024-01-10T23:07:57;-3.70;99.90
46652;DHT22;32377;52.182;5.398;2024-01-10T23:10:22;-3.70;99.90
46652;DHT22;32377;52.182;5.398;2024-01-10T23:12:48;-3.70;99.90
46652;DHT22;32377;52.182;5.398;2024-01-10T23:15:14;-3.70;99.90
46652;DHT22;32377;52.182;5.398;2024-01-10T23:17:39;-3.70;99.90
46652;DHT22;32377;52.182;5.398;2024-01-10T23:20:06;-3.70;99.90
46652;DHT22;32377;52.182;5.398;2024-01-10T23:22:31;-3.70;99.90
46652;DHT22;32377;52.182;5.398;2024-01-10T23:24:57;-3.80;99.90
46652;DHT22;32377;52.182;5.398;2024-01-10T23:27:23;-3.80;99.90
46652;DHT22;32377;52.182;5.398;2024-01-10T23:29:49;-3.80;99.90
46652;DHT22;32377;52.182;5.398;2024-01-10T23:32:14;-3.80;99.90
46652;DHT22;32377;52.182;5.398;2024-01-10T23:34:43;-3.80;99.90
46652;DHT22;32377;52.182;5.398;2024-01-10T23:37:08;-3.80;99.90
46652;DHT22;32377;52.182;5.398;2024-01-10T23:39:34;-3.80;99.90
46652;DHT22;32377;52.182;5.398;2024-01-10T23:42:00;-3.80;99.90
46652;DHT22;32377;52.182;5.398;2024-01-10T23:44:25;-3.90;99.90
46652;DHT22;32377;52.182;5.398;2024-01-10T23:46:51;-3.80;99.90
46652;DHT22;32377;52.182;5.398;2024-01-10T23:49:17;-3.90;99.90
46652;DHT22;32377;52.182;5.398;2024-01-10T23:51:42;-3.90;99.90
46652;DHT22;32377;52.182;5.398;2024-01-10T23:54:08;-3.90;99.90
46652;DHT22;32377;52.182;5.398;2024-01-10T23:56:34;-3.90;99.90
46652;DHT22;32377;52.182;5.398;2024-01-10T23:59:01;-3.90;99.90
